createdAt,value
2022-11-16T00:01:53.006Z,129
2022-11-16T00:05:54.942Z,129
2022-11-16T00:07:56.030Z,129
2022-11-16T00:09:57.077Z,129
2022-11-16T00:11:58.952Z,130
2022-11-16T00:14:00.396Z,129
2022-11-16T00:16:01.903Z,129
2022-11-16T00:18:03.487Z,104
2022-11-16T00:20:04.826Z,104
2022-11-16T00:22:06.416Z,104
2022-11-16T00:24:07.798Z,120
2022-11-16T00:26:08.909Z,120
2022-11-16T00:28:10.512Z,119
2022-11-16T00:30:12.139Z,61
2022-11-16T00:32:13.090Z,61
2022-11-16T00:34:14.995Z,61
2022-11-16T00:38:18.413Z,61
2022-11-16T00:40:19.685Z,61
2022-11-16T00:42:20.900Z,61
2022-11-16T00:44:22.378Z,61
2022-11-16T00:48:25.284Z,61
2022-11-16T00:50:26.524Z,61
2022-11-16T00:52:28.159Z,61
2022-11-16T00:54:29.740Z,61
2022-11-16T00:56:31.302Z,61
2022-11-16T00:58:33.041Z,61
2022-11-16T01:00:34.586Z,61
2022-11-16T01:02:35.643Z,61
2022-11-16T01:04:37.073Z,61
2022-11-16T01:06:38.192Z,61
2022-11-16T01:08:39.890Z,61
2022-11-16T01:10:41.169Z,61
2022-11-16T01:12:42.538Z,61
2022-11-16T01:14:52.843Z,61
2022-11-16T01:16:45.160Z,61
2022-11-16T01:20:48.281Z,61
2022-11-16T01:22:49.271Z,61
2022-11-16T01:24:50.901Z,61
2022-11-16T01:26:52.382Z,61
2022-11-16T01:30:55.950Z,61
2022-11-16T01:32:56.987Z,61
2022-11-16T01:36:59.590Z,61
2022-11-16T01:41:46.328Z,61
2022-11-16T01:43:47.773Z,61
2022-11-16T01:45:48.739Z,61
2022-11-16T01:47:50.624Z,61
2022-11-16T01:51:53.171Z,61
2022-11-16T01:53:54.434Z,61
2022-11-16T01:55:55.497Z,61
2022-11-16T01:57:56.545Z,61
2022-11-16T02:04:00.500Z,61
2022-11-16T02:06:01.767Z,61
2022-11-16T02:08:03.700Z,61
2022-11-16T02:10:05.509Z,61
2022-11-16T02:14:08.407Z,61
2022-11-16T02:16:09.569Z,61
2022-11-16T02:18:10.589Z,61
2022-11-16T02:20:11.628Z,61
2022-11-16T02:24:15.186Z,61
2022-11-16T02:26:16.344Z,61
2022-11-16T02:28:17.524Z,61
2022-11-16T02:30:18.520Z,61
2022-11-16T02:32:19.673Z,61
2022-11-16T02:34:21.373Z,61
2022-11-16T02:36:22.647Z,61
2022-11-16T02:38:23.863Z,61
2022-11-16T02:40:25.645Z,61
2022-11-16T02:44:28.270Z,61
2022-11-16T02:46:30.127Z,61
2022-11-16T02:48:31.451Z,61
2022-11-16T02:50:32.368Z,61
2022-11-16T02:52:34.011Z,61
2022-11-16T02:56:37.499Z,61
2022-11-16T02:58:38.611Z,61
2022-11-16T03:00:40.471Z,61
2022-11-16T03:02:42.190Z,61
2022-11-16T03:06:44.909Z,61
2022-11-16T03:08:46.748Z,360
2022-11-16T03:10:48.249Z,360
2022-11-16T03:12:49.761Z,360
2022-11-16T03:16:52.673Z,360
2022-11-16T03:18:54.501Z,360
2022-11-16T03:20:55.879Z,360
2022-11-16T03:22:57.593Z,360
2022-11-16T03:29:01.535Z,360
2022-11-16T03:31:02.886Z,360
2022-11-16T03:33:04.356Z,360
2022-11-16T03:35:05.445Z,360
2022-11-16T03:39:07.686Z,360
2022-11-16T03:43:10.565Z,360
2022-11-16T03:45:12.516Z,360
2022-11-16T03:49:15.543Z,360
2022-11-16T03:51:16.519Z,360
2022-11-16T03:55:19.686Z,360
2022-11-16T03:59:23.232Z,360
2022-11-16T04:01:25.023Z,360
2022-11-16T04:05:27.554Z,360
2022-11-16T04:09:30.149Z,360
2022-11-16T04:11:31.971Z,360
2022-11-16T04:15:35.108Z,360
2022-11-16T04:17:36.228Z,360
2022-11-16T04:19:37.491Z,360
2022-11-16T04:21:39.110Z,360
2022-11-16T04:27:43.460Z,360
2022-11-16T04:29:45.212Z,360
2022-11-16T04:31:46.592Z,360
2022-11-16T04:33:48.401Z,360
2022-11-16T04:37:51.152Z,360
2022-11-16T04:39:52.777Z,360
2022-11-16T04:41:53.968Z,360
2022-11-16T04:43:55.558Z,360
2022-11-16T04:47:58.451Z,360
2022-11-16T04:50:00.286Z,360
2022-11-16T04:52:01.263Z,360
2022-11-16T04:54:02.623Z,360
2022-11-16T04:56:03.972Z,360
2022-11-16T04:58:05.725Z,360
2022-11-16T05:00:07.006Z,360
2022-11-16T05:02:08.906Z,160
2022-11-16T05:04:10.327Z,161
2022-11-16T05:06:11.490Z,161
2022-11-16T05:08:13.336Z,161
2022-11-16T05:10:14.518Z,161
2022-11-16T05:14:17.259Z,161
2022-11-16T05:16:18.288Z,162
2022-11-16T05:20:21.607Z,162
2022-11-16T05:22:22.744Z,161
2022-11-16T05:26:25.313Z,161
2022-11-16T05:30:28.023Z,161
2022-11-16T05:32:28.908Z,161
2022-11-16T05:34:30.007Z,161
2022-11-16T05:36:31.545Z,161
2022-11-16T05:40:33.567Z,161
2022-11-16T05:42:35.278Z,161
2022-11-16T05:44:36.719Z,161
2022-11-16T05:46:38.429Z,161
2022-11-16T05:48:40.236Z,161
2022-11-16T05:50:42.895Z,161
2022-11-16T05:52:43.655Z,161
2022-11-16T05:54:45.196Z,161
2022-11-16T05:56:46.151Z,161
2022-11-16T05:58:47.207Z,161
2022-11-16T06:02:50.214Z,161
2022-11-16T06:04:51.453Z,161
2022-11-16T06:06:52.737Z,161
2022-11-16T06:08:54.556Z,161
2022-11-16T06:10:55.567Z,161
2022-11-16T06:12:57.072Z,162
2022-11-16T06:14:58.235Z,162
2022-11-16T06:19:01.692Z,161
2022-11-16T06:23:04.445Z,161
2022-11-16T06:25:06.218Z,161
2022-11-16T06:27:07.180Z,161
2022-11-16T06:29:08.620Z,161
2022-11-16T06:33:11.636Z,161
2022-11-16T06:35:13.056Z,161
2022-11-16T06:39:15.648Z,161
2022-11-16T06:41:17.593Z,161
2022-11-16T06:43:19.214Z,161
2022-11-16T06:45:20.544Z,162
2022-11-16T06:49:23.551Z,161
2022-11-16T06:51:25.304Z,161
2022-11-16T06:55:28.077Z,161
2022-11-16T06:57:29.575Z,162
2022-11-16T07:01:32.267Z,162
2022-11-16T07:03:33.317Z,162
2022-11-16T07:05:34.520Z,162
2022-11-16T07:07:36.355Z,162
2022-11-16T07:11:38.774Z,223
2022-11-16T07:13:40.644Z,223
2022-11-16T07:17:43.909Z,223
2022-11-16T07:19:54.237Z,223
2022-11-16T07:21:46.890Z,223
2022-11-16T07:23:48.447Z,223
2022-11-16T07:25:49.742Z,223
2022-11-16T07:27:51.611Z,223
2022-11-16T07:29:53.234Z,223
2022-11-16T07:31:54.546Z,223
2022-11-16T07:33:55.844Z,223
2022-11-16T07:35:57.373Z,223
2022-11-16T07:37:59.244Z,223
2022-11-16T07:40:00.711Z,223
2022-11-16T07:44:03.450Z,223
2022-11-16T07:46:45.123Z,223
2022-11-16T07:48:05.814Z,223
2022-11-16T07:50:06.876Z,223
2022-11-16T07:54:10.426Z,223
2022-11-16T07:56:12.315Z,223
2022-11-16T07:58:13.647Z,223
2022-11-16T08:00:14.877Z,223
2022-11-16T08:02:16.778Z,223
2022-11-16T08:04:18.164Z,223
2022-11-16T08:06:19.868Z,223
2022-11-16T08:08:21.710Z,223
2022-11-16T08:10:23.701Z,223
2022-11-16T08:12:24.724Z,223
2022-11-16T08:14:26.207Z,223
2022-11-16T08:16:27.534Z,223
2022-11-16T08:18:28.526Z,223
2022-11-16T08:20:29.811Z,223
2022-11-16T08:22:30.750Z,224
2022-11-16T08:25:16.159Z,225
2022-11-16T08:27:17.048Z,225
2022-11-16T08:31:20.241Z,225
2022-11-16T08:33:22.047Z,225
2022-11-16T08:35:23.282Z,225
2022-11-16T08:37:24.431Z,225
2022-11-16T08:41:26.955Z,248
2022-11-16T08:43:28.150Z,248
2022-11-16T08:45:29.609Z,248
2022-11-16T08:47:31.259Z,248
2022-11-16T08:51:34.213Z,266
2022-11-16T08:53:35.877Z,266
2022-11-16T08:57:38.366Z,267
2022-11-16T08:59:39.576Z,266
2022-11-16T09:01:41.494Z,266
2022-11-16T09:03:43.107Z,266
2022-11-16T09:07:45.843Z,266
2022-11-16T09:09:47.331Z,266
2022-11-16T09:13:50.574Z,269
2022-11-16T09:15:51.492Z,269
2022-11-16T09:19:54.963Z,251
2022-11-16T09:21:55.926Z,296
2022-11-16T09:23:57.197Z,296
2022-11-16T09:25:58.998Z,296
2022-11-16T09:30:01.951Z,255
2022-11-16T09:34:04.854Z,262
2022-11-16T09:36:06.639Z,275
2022-11-16T09:38:07.951Z,268
2022-11-16T09:40:09.047Z,272
2022-11-16T09:42:10.532Z,234
2022-11-16T09:44:11.855Z,234
2022-11-16T09:46:12.838Z,232
2022-11-16T09:48:14.012Z,233
2022-11-16T09:50:15.330Z,233
2022-11-16T09:52:16.351Z,232
2022-11-16T09:54:17.687Z,232
2022-11-16T09:56:22.043Z,233
2022-11-16T09:58:20.738Z,233
2022-11-16T10:02:22.976Z,233
2022-11-16T10:04:24.125Z,233
2022-11-16T10:08:27.055Z,216
2022-11-16T10:12:30.227Z,216
2022-11-16T10:14:31.494Z,220
2022-11-16T10:16:32.918Z,220
2022-11-16T10:18:34.518Z,224
2022-11-16T10:20:36.669Z,223
2022-11-16T10:22:37.955Z,260
2022-11-16T10:24:38.836Z,251
2022-11-16T10:26:40.506Z,237
2022-11-16T10:28:42.210Z,238
2022-11-16T10:30:43.239Z,239
2022-11-16T10:34:45.666Z,192
2022-11-16T10:36:47.194Z,235
2022-11-16T10:38:48.455Z,276
2022-11-16T10:40:49.461Z,246
2022-11-16T10:44:51.725Z,217
2022-11-16T10:46:53.161Z,251
2022-11-16T10:50:56.563Z,216
2022-11-16T10:54:58.893Z,216
2022-11-16T10:57:00.102Z,216
2022-11-16T11:01:03.070Z,217
2022-11-16T11:05:06.369Z,193
2022-11-16T11:07:07.331Z,218
2022-11-16T11:09:08.992Z,234
2022-11-16T11:11:10.447Z,231
2022-11-16T11:13:11.782Z,202
2022-11-16T11:15:12.940Z,218
2022-11-16T11:17:14.526Z,217
2022-11-16T11:19:16.343Z,217
2022-11-16T11:21:17.612Z,217
2022-11-16T11:23:19.065Z,212
2022-11-16T11:25:20.587Z,212
2022-11-16T11:27:22.173Z,212
2022-11-16T11:29:23.295Z,213
2022-11-16T11:33:25.952Z,224
2022-11-16T11:35:27.789Z,224
2022-11-16T11:37:28.997Z,224
2022-11-16T11:39:30.376Z,224
2022-11-16T11:43:33.590Z,224
2022-11-16T11:45:34.591Z,235
2022-11-16T11:47:59.508Z,258
2022-11-16T11:49:38.209Z,258
2022-11-16T11:51:39.164Z,258
2022-11-16T11:53:40.664Z,258
2022-11-16T11:55:42.331Z,258
2022-11-16T11:57:43.267Z,258
2022-11-16T11:59:44.927Z,258
2022-11-16T12:01:46.583Z,282
2022-11-16T12:03:47.525Z,282
2022-11-16T12:05:48.716Z,282
2022-11-16T12:07:49.662Z,282
2022-11-16T12:09:50.912Z,282
2022-11-16T12:11:52.387Z,281
2022-11-16T12:15:55.094Z,281
2022-11-16T12:17:56.841Z,281
2022-11-16T12:19:57.808Z,281
2022-11-16T12:21:59.635Z,281
2022-11-16T12:26:01.688Z,281
2022-11-16T12:28:02.688Z,281
2022-11-16T12:30:03.945Z,281
2022-11-16T12:32:05.409Z,281
2022-11-16T12:36:08.049Z,281
2022-11-16T12:38:09.312Z,281
2022-11-16T12:42:11.839Z,281
2022-11-16T12:46:14.820Z,282
2022-11-16T12:48:16.659Z,282
2022-11-16T12:52:18.961Z,281
2022-11-16T12:54:20.440Z,281
2022-11-16T12:56:21.387Z,281
2022-11-16T12:58:22.434Z,281
2022-11-16T13:04:25.663Z,281
2022-11-16T13:06:27.392Z,281
2022-11-16T13:08:28.359Z,281
2022-11-16T13:10:30.137Z,281
2022-11-16T13:12:31.006Z,281
2022-11-16T13:14:32.947Z,281
2022-11-16T13:16:34.260Z,281
2022-11-16T13:20:36.873Z,281
2022-11-16T13:24:39.282Z,281
2022-11-16T13:26:40.464Z,215
2022-11-16T13:28:41.466Z,246
2022-11-16T13:30:42.478Z,246
2022-11-16T13:32:43.430Z,246
2022-11-16T13:34:44.504Z,246
2022-11-16T13:36:46.183Z,246
2022-11-16T13:40:48.367Z,246
2022-11-16T13:44:51.708Z,247
2022-11-16T13:46:56.072Z,247
2022-11-16T13:48:53.938Z,247
2022-11-16T13:50:55.523Z,247
2022-11-16T13:53:41.131Z,247
2022-11-16T13:56:59.178Z,259
2022-11-16T13:59:00.790Z,258
2022-11-16T14:01:02.359Z,258
2022-11-16T14:03:03.340Z,259
2022-11-16T14:07:06.307Z,258
2022-11-16T14:09:08.000Z,259
2022-11-16T14:11:09.287Z,258
2022-11-16T14:13:10.661Z,258
2022-11-16T14:17:12.916Z,179
2022-11-16T14:19:14.427Z,179
2022-11-16T14:21:15.503Z,179
2022-11-16T14:23:16.995Z,179
2022-11-16T14:27:18.972Z,179
2022-11-16T14:29:20.616Z,179
2022-11-16T14:33:22.840Z,179
2022-11-16T14:35:24.485Z,179
2022-11-16T14:37:25.581Z,179
2022-11-16T14:39:26.912Z,179
2022-11-16T14:45:31.142Z,179
2022-11-16T14:47:32.529Z,179
2022-11-16T14:49:34.127Z,179
2022-11-16T14:51:35.284Z,179
2022-11-16T14:55:37.863Z,179
2022-11-16T14:57:39.632Z,179
2022-11-16T14:59:40.604Z,179
2022-11-16T15:01:42.309Z,179
2022-11-16T15:05:44.878Z,179
2022-11-16T15:07:46.108Z,179
2022-11-16T15:09:47.287Z,179
2022-11-16T15:10:31.110Z,180
2022-11-16T15:12:33.003Z,179
2022-11-16T15:14:33.905Z,179
2022-11-16T15:16:35.145Z,179
2022-11-16T15:18:36.156Z,179
2022-11-16T15:20:37.740Z,179
2022-11-16T15:22:38.850Z,179
2022-11-16T15:24:39.794Z,179
2022-11-16T15:26:41.374Z,179
2022-11-16T15:28:45.822Z,179
2022-11-16T15:32:45.879Z,179
2022-11-16T15:34:47.721Z,179
2022-11-16T15:36:49.266Z,179
2022-11-16T15:38:51.067Z,179
2022-11-16T15:42:54.516Z,179
2022-11-16T15:44:56.285Z,179
2022-11-16T15:46:58.083Z,179
2022-11-16T15:48:59.360Z,179
2022-11-16T15:53:02.304Z,179
2022-11-16T15:55:03.649Z,179
2022-11-16T15:57:05.441Z,179
2022-11-16T15:59:07.312Z,179
2022-11-16T16:03:10.322Z,179
2022-11-16T16:05:11.729Z,179
2022-11-16T16:07:12.796Z,179
2022-11-16T16:09:14.194Z,179
2022-11-16T16:11:15.555Z,179
2022-11-16T16:15:18.278Z,115
2022-11-16T16:17:20.014Z,115
2022-11-16T16:19:21.405Z,115
2022-11-16T16:21:22.984Z,115
2022-11-16T16:25:25.107Z,115
2022-11-16T16:27:26.219Z,115
2022-11-16T16:31:29.191Z,115
2022-11-16T16:35:32.690Z,115
2022-11-16T16:37:33.892Z,115
2022-11-16T16:41:36.303Z,115
2022-11-16T16:43:37.537Z,115
2022-11-16T16:45:38.517Z,115
2022-11-16T16:47:40.301Z,115
2022-11-16T16:51:42.914Z,115
2022-11-16T16:53:44.416Z,115
2022-11-16T16:55:46.308Z,115
2022-11-16T16:57:47.958Z,115
2022-11-16T17:03:53.157Z,115
2022-11-16T17:05:54.209Z,115
2022-11-16T17:07:55.236Z,115
2022-11-16T17:10:05.684Z,115
2022-11-16T17:13:59.257Z,115
2022-11-16T17:16:01.006Z,115
2022-11-16T17:18:02.052Z,115
2022-11-16T17:20:03.693Z,115
2022-11-16T17:24:06.855Z,115
2022-11-16T17:26:08.810Z,115
2022-11-16T17:28:10.729Z,115
2022-11-16T17:30:12.495Z,115
2022-11-16T17:32:13.475Z,133
2022-11-16T17:34:14.640Z,133
2022-11-16T17:36:15.962Z,133
2022-11-16T17:38:17.026Z,133
2022-11-16T17:40:18.862Z,133
2022-11-16T17:42:20.067Z,133
2022-11-16T17:44:22.205Z,133
2022-11-16T17:46:22.901Z,133
2022-11-16T17:48:23.928Z,133
2022-11-16T17:50:25.763Z,133
2022-11-16T17:52:26.879Z,133
2022-11-16T17:56:29.304Z,133
2022-11-16T17:58:30.843Z,133
2022-11-16T18:02:34.560Z,133
2022-11-16T18:06:36.929Z,133
2022-11-16T18:08:38.777Z,133
2022-11-16T18:10:40.419Z,133
2022-11-16T18:12:41.926Z,133
2022-11-16T18:14:50.656Z,133
2022-11-16T18:16:44.025Z,133
2022-11-16T18:18:54.873Z,133
2022-11-16T18:22:48.929Z,133
2022-11-16T18:26:51.396Z,133
2022-11-16T18:28:52.718Z,133
2022-11-16T18:30:53.868Z,133
2022-11-16T18:32:55.157Z,133
2022-11-16T18:34:56.769Z,133
2022-11-16T18:38:59.333Z,133
2022-11-16T18:41:00.586Z,133
2022-11-16T18:43:01.644Z,110
2022-11-16T18:45:02.655Z,110
2022-11-16T18:49:05.051Z,154
2022-11-16T18:51:06.167Z,154
2022-11-16T18:55:09.437Z,299
2022-11-16T18:59:12.000Z,360
2022-11-16T19:01:13.496Z,360
2022-11-16T19:05:16.179Z,360
2022-11-16T19:09:18.886Z,360
2022-11-16T19:11:19.963Z,360
2022-11-16T19:13:21.099Z,360
2022-11-16T19:15:23.009Z,360
2022-11-16T19:17:24.379Z,360
2022-11-16T19:19:25.639Z,360
2022-11-16T19:21:27.446Z,360
2022-11-16T19:27:31.920Z,79
2022-11-16T19:29:33.270Z,79
2022-11-16T19:31:34.874Z,79
2022-11-16T19:33:36.754Z,79
2022-11-16T19:37:39.084Z,79
2022-11-16T19:39:40.422Z,79
2022-11-16T19:41:41.436Z,79
2022-11-16T19:43:43.305Z,79
2022-11-16T19:47:46.395Z,79
2022-11-16T19:49:48.265Z,79
2022-11-16T19:51:50.133Z,79
2022-11-16T19:53:51.746Z,79
2022-11-16T19:55:52.793Z,79
2022-11-16T19:57:54.562Z,79
2022-11-16T19:59:55.554Z,79
2022-11-16T20:01:56.978Z,79
2022-11-16T20:03:58.118Z,79
2022-11-16T20:05:59.510Z,79
2022-11-16T20:08:00.675Z,79
2022-11-16T20:10:01.834Z,79
